createdAt,value
2023-03-05T00:00:01.049Z,101031.00
2023-03-05T00:02:30.201Z,101051.00
2023-03-05T00:04:58.026Z,101046.00
2023-03-05T00:07:25.850Z,101062.00
2023-03-05T00:09:53.743Z,101050.00
2023-03-05T00:12:21.529Z,101046.00
2023-03-05T00:14:49.422Z,101037.00
2023-03-05T00:17:17.469Z,101048.00
2023-03-05T00:19:46.766Z,101029.00
2023-03-05T00:22:14.615Z,101028.00
2023-03-05T00:24:42.421Z,101037.00
2023-03-05T00:27:10.230Z,101021.00
2023-03-05T00:29:38.060Z,101005.00
2023-03-05T00:32:06.080Z,101016.00
2023-03-05T00:34:34.034Z,101014.00
2023-03-05T00:37:03.166Z,101007.00
2023-03-05T00:39:30.945Z,101007.00
2023-03-05T00:41:58.956Z,101010.00
2023-03-05T00:44:26.867Z,100999.00
2023-03-05T00:46:54.796Z,101006.00
2023-03-05T00:49:22.826Z,101009.00
2023-03-05T00:51:50.602Z,100966.00
2023-03-05T00:54:19.781Z,101001.00
2023-03-05T00:56:49.087Z,100993.00
2023-03-05T00:59:16.886Z,100975.00
2023-03-05T01:01:44.770Z,100991.00
2023-03-05T01:04:12.618Z,100982.00
2023-03-05T01:06:42.806Z,100976.00
2023-03-05T01:09:10.653Z,100936.00
2023-03-05T01:11:39.929Z,100972.00
2023-03-05T01:14:07.728Z,100979.00
2023-03-05T01:16:35.669Z,100950.00
2023-03-05T01:19:03.567Z,100907.00
2023-03-05T01:21:31.421Z,100953.00
2023-03-05T01:23:59.902Z,100949.00
2023-03-05T01:26:27.966Z,100945.00
2023-03-05T01:28:57.411Z,100935.00
2023-03-05T01:31:25.418Z,100950.00
2023-03-05T01:33:54.041Z,100931.00
2023-03-05T01:36:25.014Z,100925.00
2023-03-05T01:38:53.465Z,100942.00
2023-03-05T01:41:22.085Z,100921.00
2023-03-05T01:43:50.314Z,100921.00
2023-03-05T01:46:36.204Z,100926.00
2023-03-05T01:49:14.628Z,100891.00
2023-03-05T01:51:50.664Z,100915.00
2023-03-05T01:54:21.955Z,100899.00
2023-03-05T01:56:52.691Z,100902.00
2023-03-05T01:59:22.679Z,100905.00
2023-03-05T02:01:55.816Z,100887.00
2023-03-05T02:04:28.692Z,100910.00
2023-03-05T02:06:56.491Z,100909.00
2023-03-05T02:09:24.426Z,100905.00
2023-03-05T02:11:52.833Z,100897.00
2023-03-05T02:14:21.912Z,100845.00
2023-03-05T02:16:51.386Z,100874.00
2023-03-05T02:19:19.420Z,100870.00
2023-03-05T02:21:50.282Z,100891.00
2023-03-05T02:24:20.895Z,100844.00
2023-03-05T02:26:48.922Z,100882.00
2023-03-05T02:29:20.208Z,100849.00
2023-03-05T02:31:48.107Z,100846.00
2023-03-05T02:34:16.173Z,100875.00
2023-03-05T02:36:43.975Z,100859.00
2023-03-05T02:39:13.727Z,100866.00
2023-03-05T02:41:41.495Z,100866.00
2023-03-05T02:44:09.410Z,100855.00
2023-03-05T02:46:37.422Z,100797.00
2023-03-05T02:49:05.338Z,100866.00
2023-03-05T02:51:33.391Z,100817.00
2023-03-05T02:54:01.356Z,100855.00
2023-03-05T02:56:30.557Z,100855.00
2023-03-05T02:58:58.593Z,100813.00
2023-03-05T03:01:28.269Z,100855.00
2023-03-05T03:03:56.320Z,100797.00
2023-03-05T03:06:24.286Z,100844.00
2023-03-05T03:08:52.295Z,100832.00
2023-03-05T03:11:21.387Z,100833.00
2023-03-05T03:13:50.722Z,100824.00
2023-03-05T03:16:19.032Z,100795.00
2023-03-05T03:18:48.839Z,100820.00
2023-03-05T03:21:21.572Z,100793.00
2023-03-05T03:23:49.456Z,100819.00
2023-03-05T03:26:17.760Z,100812.00
2023-03-05T03:28:46.325Z,100822.00
2023-03-05T03:31:15.805Z,100797.00
2023-03-05T03:33:43.622Z,100800.00
2023-03-05T03:36:11.724Z,100811.00
2023-03-05T03:38:39.586Z,100809.00
2023-03-05T03:41:08.383Z,100810.00
2023-03-05T03:43:36.195Z,100802.00
2023-03-05T03:46:05.761Z,100796.00
2023-03-05T03:48:36.198Z,100781.00
2023-03-05T03:51:07.076Z,100806.00
2023-03-05T03:53:35.236Z,100763.00
2023-03-05T03:56:03.587Z,100793.00
2023-03-05T03:58:31.568Z,100784.00
2023-03-05T04:00:59.472Z,100786.00
2023-03-05T04:03:27.415Z,100787.00
2023-03-05T04:05:56.627Z,100790.00
2023-03-05T04:08:24.441Z,100783.00
2023-03-05T04:10:52.247Z,100787.00
2023-03-05T04:13:20.311Z,100758.00
2023-03-05T04:15:48.179Z,100751.00
2023-03-05T04:18:15.963Z,100787.00
2023-03-05T04:20:43.798Z,100763.00
2023-03-05T04:23:13.012Z,100769.00
2023-03-05T04:25:40.829Z,100770.00
2023-03-05T04:28:08.700Z,100717.00
2023-03-05T04:30:37.107Z,100774.00
2023-03-05T04:33:05.192Z,100752.00
2023-03-05T04:35:33.286Z,100760.00
2023-03-05T04:38:01.439Z,100768.00
2023-03-05T04:40:30.685Z,100753.00
2023-03-05T04:42:58.481Z,100697.00
2023-03-05T04:45:26.326Z,100753.00
2023-03-05T04:47:54.284Z,100746.00
2023-03-05T04:50:22.448Z,100745.00
2023-03-05T04:52:50.340Z,100738.00
2023-03-05T04:55:18.882Z,100730.00
2023-03-05T04:57:48.046Z,100737.00
2023-03-05T05:00:17.875Z,100687.00
2023-03-05T05:02:47.373Z,100746.00
2023-03-05T05:05:18.349Z,100730.00
2023-03-05T05:07:46.392Z,100738.00
2023-03-05T05:10:16.264Z,100737.00
2023-03-05T05:12:44.651Z,100685.00
2023-03-05T05:15:14.806Z,100722.00
2023-03-05T05:17:42.639Z,100730.00
2023-03-05T05:20:12.460Z,100709.00
2023-03-05T05:22:40.622Z,100729.00
2023-03-05T05:25:09.046Z,100737.00
2023-03-05T05:27:37.145Z,100704.00
2023-03-05T05:30:05.705Z,100706.00
2023-03-05T05:32:35.182Z,100725.00
2023-03-05T05:35:03.833Z,100718.00
2023-03-05T05:37:31.966Z,100715.00
2023-03-05T05:40:00.157Z,100702.00
2023-03-05T05:42:29.440Z,100718.00
2023-03-05T05:44:57.352Z,100715.00
2023-03-05T05:47:25.104Z,100706.00
2023-03-05T05:49:54.314Z,100709.00
2023-03-05T05:52:22.322Z,100708.00
2023-03-05T05:54:50.119Z,100712.00
2023-03-05T05:57:17.849Z,100705.00
2023-03-05T05:59:45.828Z,100706.00
2023-03-05T06:02:13.728Z,100685.00
2023-03-05T06:04:41.538Z,100708.00
2023-03-05T06:07:10.777Z,100698.00
2023-03-05T06:09:38.636Z,100698.00
2023-03-05T06:12:07.698Z,100659.00
2023-03-05T06:14:35.623Z,100724.00
2023-03-05T06:17:03.444Z,100716.00
2023-03-05T06:19:31.175Z,100694.00
2023-03-05T06:21:59.040Z,100710.00
2023-03-05T06:24:28.193Z,100671.00
2023-03-05T06:26:56.034Z,100688.00
2023-03-05T06:29:24.079Z,100673.00
2023-03-05T06:31:52.161Z,100673.00
2023-03-05T06:34:19.964Z,100699.00
2023-03-05T06:36:47.762Z,100686.00
2023-03-05T06:39:15.597Z,100700.00
2023-03-05T06:41:44.827Z,100703.00
2023-03-05T06:44:12.733Z,100693.00
2023-03-05T06:46:40.616Z,100704.00
2023-03-05T06:49:09.496Z,100706.00
2023-03-05T06:51:39.952Z,100681.00
2023-03-05T06:54:09.638Z,100666.00
2023-03-05T06:56:39.143Z,100657.00
2023-03-05T06:59:09.486Z,100642.00
2023-03-05T07:01:44.147Z,100651.00
2023-03-05T07:04:17.018Z,100702.00
2023-03-05T07:06:48.433Z,100659.00
2023-03-05T07:09:18.843Z,100685.00
2023-03-05T07:11:53.493Z,100688.00
2023-03-05T07:14:25.500Z,100663.00
2023-03-05T07:17:21.763Z,100703.00
2023-03-05T07:19:56.909Z,100677.00
2023-03-05T07:22:26.764Z,100688.00
2023-03-05T07:24:55.006Z,100684.00
2023-03-05T07:27:26.639Z,100645.00
2023-03-05T07:29:58.416Z,100680.00
2023-03-05T07:32:26.354Z,100624.00
2023-03-05T07:35:02.009Z,100676.00
2023-03-05T07:37:35.993Z,100631.00
2023-03-05T07:40:24.200Z,100651.00
2023-03-05T07:42:55.040Z,100684.00
2023-03-05T07:49:47.360Z,100627.00
2023-03-05T07:52:50.467Z,100636.00
2023-03-05T07:55:45.256Z,100654.00
2023-03-05T07:58:22.323Z,100621.00
2023-03-05T08:00:52.330Z,100653.00
2023-03-05T08:03:23.635Z,100620.00
2023-03-05T08:05:57.525Z,100627.00
2023-03-05T08:08:33.569Z,100620.00
2023-03-05T08:11:32.345Z,100597.00
2023-03-05T08:14:15.916Z,100669.00
2023-03-05T08:17:40.990Z,100615.00
2023-03-05T08:23:31.217Z,100651.00
2023-03-05T08:25:59.120Z,100644.00
2023-03-05T08:28:27.340Z,100654.00
2023-03-05T08:31:24.188Z,100633.00
2023-03-05T08:34:00.422Z,100616.00
2023-03-05T08:37:17.449Z,100666.00
2023-03-05T08:39:56.325Z,100621.00
2023-03-05T08:51:01.163Z,100648.00
2023-03-05T08:53:30.878Z,100662.00
2023-03-05T08:56:05.737Z,100621.00
2023-03-05T09:02:08.397Z,100655.00
2023-03-05T09:05:30.126Z,100570.00
2023-03-05T09:08:21.551Z,100659.00
2023-03-05T09:15:04.268Z,100651.00
2023-03-05T09:18:04.117Z,100654.00
2023-03-05T09:20:46.398Z,100663.00
2023-03-05T09:23:18.856Z,100607.00
2023-03-05T09:25:57.832Z,100629.00
2023-03-05T09:28:29.477Z,100595.00
2023-03-05T09:31:24.658Z,100648.00
2023-03-05T09:33:59.002Z,100609.00
2023-03-05T09:36:29.001Z,100634.00
2023-03-05T09:39:04.807Z,100636.00
2023-03-05T09:42:01.832Z,100592.00
2023-03-05T09:44:41.779Z,100634.00
2023-03-05T09:47:40.347Z,100593.00
2023-03-05T09:50:29.343Z,100619.00
2023-03-05T09:53:29.152Z,100616.00
2023-03-05T09:56:12.479Z,100636.00
2023-03-05T09:58:48.867Z,100641.00
2023-03-05T10:01:22.408Z,100616.00
2023-03-05T10:03:56.879Z,100617.00
2023-03-05T10:06:31.051Z,100608.00
2023-03-05T10:09:05.494Z,100625.00
2023-03-05T10:11:47.201Z,100616.00
2023-03-05T10:14:39.297Z,100586.00
2023-03-05T10:17:28.281Z,100621.00
2023-03-05T10:20:20.696Z,100572.00
2023-03-05T10:23:05.523Z,100628.00
2023-03-05T10:26:13.189Z,100578.00
2023-03-05T10:29:16.927Z,100609.00
2023-03-05T10:32:15.300Z,100598.00
2023-03-05T10:35:22.068Z,100601.00
2023-03-05T10:38:36.768Z,100582.00
2023-03-05T10:41:54.576Z,100564.00
2023-03-05T10:44:37.882Z,100593.00
2023-03-05T10:47:37.055Z,100532.00
2023-03-05T10:50:33.559Z,100577.00
2023-03-05T10:53:16.428Z,100560.00
2023-03-05T10:55:44.578Z,100567.00
2023-03-05T10:58:13.680Z,100535.00
2023-03-05T11:01:02.511Z,100536.00
2023-03-05T11:03:53.681Z,100557.00
2023-03-05T11:06:31.012Z,100512.00
2023-03-05T11:09:17.743Z,100557.00
2023-03-05T11:11:45.799Z,100532.00
2023-03-05T11:14:31.210Z,100546.00
2023-03-05T11:17:27.564Z,100537.00
2023-03-05T11:19:56.087Z,100522.00
2023-03-05T11:22:33.100Z,100546.00
2023-03-05T11:25:28.191Z,100534.00
2023-03-05T11:28:10.160Z,100482.00
2023-03-05T11:30:38.532Z,100489.00
2023-03-05T11:33:25.658Z,100516.00
2023-03-05T11:36:29.396Z,100517.00
2023-03-05T11:39:23.422Z,100472.00
2023-03-05T11:42:14.712Z,100473.00
2023-03-05T11:45:12.356Z,100476.00
2023-03-05T11:47:57.200Z,100476.00
2023-03-05T11:54:24.820Z,100500.00
2023-03-05T11:57:33.186Z,100493.00
2023-03-05T12:00:14.262Z,100513.00
2023-03-05T12:03:17.789Z,100469.00
2023-03-05T12:05:57.451Z,100458.00
2023-03-05T12:08:40.816Z,100497.00
2023-03-05T12:11:41.404Z,100451.00
2023-03-05T12:14:37.121Z,100461.00
2023-03-05T12:17:11.128Z,100477.00
2023-03-05T12:19:48.886Z,100486.00
2023-03-05T12:22:37.462Z,100428.00
2023-03-05T12:25:33.502Z,100466.00
2023-03-05T12:29:01.602Z,100463.00
2023-03-05T12:31:44.516Z,100460.00
2023-03-05T12:35:23.834Z,100460.00
2023-03-05T12:38:26.547Z,100416.00
2023-03-05T12:42:26.126Z,100455.00
2023-03-05T12:45:33.740Z,100446.00
2023-03-05T12:48:43.117Z,100430.00
2023-03-05T12:52:14.687Z,100422.00
2023-03-05T12:58:18.283Z,100394.00
2023-03-05T13:00:51.291Z,100369.00
2023-03-05T13:03:22.179Z,100381.00
2023-03-05T13:05:53.475Z,100409.00
2023-03-05T13:08:23.275Z,100409.00
2023-03-05T13:10:56.302Z,100385.00
2023-03-05T13:13:25.754Z,100399.00
2023-03-05T13:15:55.114Z,100406.00
2023-03-05T13:18:26.073Z,100398.00
2023-03-05T13:21:04.686Z,100396.00
2023-03-05T13:23:33.948Z,100385.00
2023-03-05T13:26:04.734Z,100394.00
2023-03-05T13:29:27.221Z,100365.00
2023-03-05T13:31:59.805Z,100380.00
2023-03-05T13:35:22.669Z,100377.00
2023-03-05T13:38:20.395Z,100341.00
2023-03-05T13:41:22.412Z,100348.00
2023-03-05T13:55:33.916Z,100319.00
2023-03-05T14:02:00.498Z,100343.00
2023-03-05T14:04:38.313Z,100305.00
2023-03-05T14:07:35.236Z,100341.00
2023-03-05T14:10:15.604Z,100275.00
2023-03-05T14:12:45.158Z,100293.00
2023-03-05T14:15:22.980Z,100335.00
2023-03-05T14:18:12.887Z,100324.00
2023-03-05T14:20:42.330Z,100310.00
2023-03-05T14:23:28.080Z,100314.00
2023-03-05T14:26:23.625Z,100322.00
2023-03-05T14:29:02.322Z,100255.00
2023-03-05T14:31:40.295Z,100302.00
2023-03-05T14:34:08.924Z,100306.00
2023-03-05T14:36:49.065Z,100299.00
2023-03-05T14:39:29.568Z,100302.00
2023-03-05T14:42:13.340Z,100312.00
2023-03-05T14:44:47.907Z,100288.00
2023-03-05T14:47:15.783Z,100285.00
2023-03-05T14:49:49.604Z,100275.00
2023-03-05T14:52:29.846Z,100271.00
2023-03-05T14:55:18.921Z,100259.00
2023-03-05T14:57:56.229Z,100233.00
2023-03-05T15:00:32.693Z,100255.00
2023-03-05T15:03:21.114Z,100218.00
2023-03-05T15:05:57.672Z,100253.00
2023-03-05T15:08:32.666Z,100225.00
2023-03-05T15:11:03.463Z,100245.00
2023-03-05T15:13:37.388Z,100247.00
2023-03-05T15:16:06.856Z,100236.00
2023-03-05T15:18:40.595Z,100209.00
2023-03-05T15:21:08.549Z,100245.00
2023-03-05T15:23:44.573Z,100232.00
2023-03-05T15:26:21.967Z,100235.00
2023-03-05T15:28:49.899Z,100232.00
2023-03-05T15:31:25.212Z,100237.00
2023-03-05T15:33:53.720Z,100205.00
2023-03-05T15:36:27.441Z,100223.00
2023-03-05T15:38:55.289Z,100223.00
2023-03-05T15:41:30.974Z,100223.00
2023-03-05T15:43:58.816Z,100229.00
2023-03-05T15:46:36.242Z,100191.00
2023-03-05T15:49:13.146Z,100228.00
2023-03-05T15:51:41.007Z,100200.00
2023-03-05T15:54:12.129Z,100182.00
2023-03-05T15:56:41.874Z,100222.00
2023-03-05T15:59:14.757Z,100237.00
2023-03-05T16:01:53.844Z,100212.00
2023-03-05T16:04:21.837Z,100169.00
2023-03-05T16:12:05.212Z,100144.00
2023-03-05T16:45:58.837Z,100193.00
2023-03-05T16:57:46.096Z,100166.00
2023-03-05T17:06:08.082Z,100118.00
2023-03-05T17:32:12.720Z,100175.00
2023-03-05T17:35:28.900Z,100103.00
2023-03-05T17:42:18.365Z,100162.00
2023-03-05T17:45:33.158Z,100117.00
2023-03-05T17:52:26.486Z,100182.00
2023-03-05T17:54:55.059Z,100134.00
2023-03-05T17:57:27.821Z,100157.00
2023-03-05T17:59:56.009Z,100162.00
2023-03-05T18:02:33.506Z,100173.00
2023-03-05T18:05:06.311Z,100160.00
2023-03-05T18:16:08.469Z,100156.00
2023-03-05T18:19:47.173Z,100157.00
2023-03-05T18:22:49.761Z,100127.00
2023-03-05T18:25:30.831Z,100143.00
2023-03-05T18:28:16.543Z,100110.00
2023-03-05T18:30:47.205Z,100140.00
2023-03-05T18:33:26.396Z,100108.00
2023-03-05T18:35:55.182Z,100132.00
2023-03-05T18:38:24.422Z,100104.00
2023-03-05T18:40:53.375Z,100116.00
2023-03-05T18:43:53.621Z,100062.00
2023-03-05T18:50:32.383Z,100087.00
2023-03-05T18:53:44.431Z,100076.00
2023-03-05T18:57:00.708Z,100075.00
2023-03-05T19:03:14.155Z,100063.00
2023-03-05T19:06:31.516Z,100046.00
2023-03-05T19:09:29.004Z,100078.00
2023-03-05T19:12:13.135Z,100115.00
2023-03-05T19:15:08.561Z,100120.00
2023-03-05T19:17:49.806Z,100120.00
2023-03-05T19:20:44.503Z,100049.00
2023-03-05T19:23:51.746Z,100073.00
2023-03-05T19:30:52.915Z,100050.00
2023-03-05T19:34:06.231Z,100069.00
2023-03-05T19:41:35.710Z,100091.00
2023-03-05T19:45:17.938Z,100066.00
2023-03-05T19:48:26.212Z,100077.00
2023-03-05T19:51:05.496Z,100022.00
2023-03-05T19:53:52.172Z,100069.00
2023-03-05T19:56:27.751Z,100067.00
2023-03-05T19:58:55.929Z,100059.00
2023-03-05T20:01:45.273Z,100018.00
2023-03-05T20:04:48.478Z,100063.00
2023-03-05T20:11:29.756Z,100014.00
2023-03-05T20:13:57.840Z,100028.00
2023-03-05T20:16:27.909Z,100031.00
2023-03-05T20:18:56.610Z,100060.00
2023-03-05T20:21:27.222Z,100056.00
2023-03-05T20:23:57.695Z,100055.00
2023-03-05T20:26:26.825Z,100062.00
2023-03-05T20:28:57.660Z,100020.00
2023-03-05T20:31:27.792Z,100050.00
2023-03-05T20:34:18.998Z,100075.00
2023-03-05T20:37:40.115Z,100044.00
2023-03-05T20:40:10.061Z,100039.00
2023-03-05T20:42:38.226Z,99995.00
2023-03-05T20:45:07.249Z,99984.00
2023-03-05T20:47:40.611Z,100031.00
2023-03-05T20:54:31.572Z,100003.00
2023-03-05T20:57:23.348Z,100022.00
2023-03-05T21:00:29.283Z,100030.00
2023-03-05T21:03:42.051Z,100023.00
2023-03-05T21:06:13.360Z,99970.00
2023-03-05T21:08:41.504Z,100030.00
2023-03-05T21:11:40.456Z,100027.00
2023-03-05T21:14:17.898Z,100006.00
2023-03-05T21:17:22.333Z,100008.00
2023-03-05T21:20:09.680Z,100007.00
2023-03-05T21:22:39.954Z,99957.00
2023-03-05T21:25:31.767Z,100001.00
2023-03-05T21:28:04.038Z,99938.00
2023-03-05T21:30:34.621Z,99961.00
2023-03-05T21:33:11.943Z,99981.00
2023-03-05T21:35:42.620Z,99998.00
2023-03-05T21:38:14.108Z,99981.00
2023-03-05T21:40:45.548Z,99967.00
2023-03-05T21:43:21.418Z,99928.00
2023-03-05T21:46:14.542Z,99977.00
2023-03-05T21:48:51.506Z,99945.00
2023-03-05T21:51:46.450Z,99962.00
2023-03-05T21:54:18.898Z,99968.00
2023-03-05T21:56:57.014Z,99909.00
2023-03-05T21:59:29.217Z,99968.00
2023-03-05T22:02:05.688Z,99913.00
2023-03-05T22:04:52.460Z,99939.00
2023-03-05T22:07:27.936Z,99931.00
2023-03-05T22:10:01.240Z,99937.00
2023-03-05T22:12:45.576Z,99937.00
2023-03-05T22:15:27.642Z,99902.00
2023-03-05T22:17:55.974Z,99939.00
2023-03-05T22:20:30.301Z,99928.00
2023-03-05T22:22:58.825Z,99908.00
2023-03-05T22:25:36.946Z,99903.00
2023-03-05T22:28:09.416Z,99873.00
2023-03-05T22:30:56.633Z,99858.00
2023-03-05T22:33:31.808Z,99879.00
2023-03-05T22:36:21.232Z,99892.00
2023-03-05T22:39:02.473Z,99840.00
2023-03-05T22:41:39.845Z,99900.00
2023-03-05T22:44:16.321Z,99897.00
2023-03-05T22:47:13.698Z,99900.00
2023-03-05T22:49:54.178Z,99882.00
2023-03-05T22:52:23.406Z,99877.00
2023-03-05T22:54:56.133Z,99849.00
2023-03-05T22:57:34.170Z,99881.00
2023-03-05T23:00:19.064Z,99837.00
2023-03-05T23:03:03.211Z,99867.00
2023-03-05T23:06:02.529Z,99833.00
2023-03-05T23:08:39.158Z,99826.00
2023-03-05T23:11:45.933Z,99791.00
2023-03-05T23:14:15.203Z,99865.00
2023-03-05T23:16:54.265Z,99858.00
2023-03-05T23:19:28.614Z,99863.00
2023-03-05T23:21:56.743Z,99832.00
2023-03-05T23:24:24.627Z,99855.00
2023-03-05T23:26:54.070Z,99826.00
2023-03-05T23:29:54.564Z,99860.00
2023-03-05T23:32:22.364Z,99861.00
2023-03-05T23:34:51.567Z,99864.00
2023-03-05T23:37:25.008Z,99858.00
2023-03-05T23:40:08.836Z,99865.00
2023-03-05T23:42:38.246Z,99791.00
2023-03-05T23:45:09.214Z,99840.00
2023-03-05T23:47:47.968Z,99856.00
2023-03-05T23:50:35.922Z,99833.00
2023-03-05T23:53:22.559Z,99806.00
2023-03-05T23:55:51.026Z,99835.00
2023-03-05T23:58:23.415Z,99839.00
